sensor_id;sensor_type;location;lat;lon;timestamp;temperature;humidity
3281;DHT22;1652;51.318;6.202;2023-04-03T00:00:33;2.40;99.90
3281;DHT22;1652;51.318;6.202;2023-04-03T00:03:01;2.40;99.90
3281;DHT22;1652;51.318;6.202;2023-04-03T00:05:28;2.30;99.90
3281;DHT22;1652;51.318;6.202;2023-04-03T00:07:55;2.30;99.90
3281;DHT22;1652;51.318;6.202;2023-04-03T00:10:22;2.30;99.90
3281;DHT22;1652;51.318;6.202;2023-04-03T00:12:49;2.30;99.90
3281;DHT22;1652;51.318;6.202;2023-04-03T00:15:16;2.30;99.90
3281;DHT22;1652;51.318;6.202;2023-04-03T00:17:43;2.30;99.90
3281;DHT22;1652;51.318;6.202;2023-04-03T00:20:11;2.30;99.90
3281;DHT22;1652;51.318;6.202;2023-04-03T00:22:38;2.30;99.90
3281;DHT22;1652;51.318;6.202;2023-04-03T00:25:06;2.30;99.90
3281;DHT22;1652;51.318;6.202;2023-04-03T00:27:33;2.20;99.90
3281;DHT22;1652;51.318;6.202;2023-04-03T00:30:02;2.20;99.90
3281;DHT22;1652;51.318;6.202;2023-04-03T00:32:29;2.10;99.90
3281;DHT22;1652;51.318;6.202;2023-04-03T00:34:56;2.20;99.90
3281;DHT22;1652;51.318;6.202;2023-04-03T00:37:23;2.20;99.90
3281;DHT22;1652;51.318;6.202;2023-04-03T00:39:50;2.20;99.90
3281;DHT22;1652;51.318;6.202;2023-04-03T00:42:17;2.20;99.90
3281;DHT22;1652;51.318;6.202;2023-04-03T00:47:15;2.20;99.90
3281;DHT22;1652;51.318;6.202;2023-04-03T00:49:42;2.10;99.90
3281;DHT22;1652;51.318;6.202;2023-04-03T00:52:16;2.10;99.90
3281;DHT22;1652;51.318;6.202;2023-04-03T00:54:46;2.00;99.90
3281;DHT22;1652;51.318;6.202;2023-04-03T00:57:15;2.00;99.90
3281;DHT22;1652;51.318;6.202;2023-04-03T00:59:46;1.90;99.90
3281;DHT22;1652;51.318;6.202;2023-04-03T01:02:15;2.00;99.90
3281;DHT22;1652;51.318;6.202;2023-04-03T01:04:43;2.00;99.90
3281;DHT22;1652;51.318;6.202;2023-04-03T01:07:30;2.00;99.90
3281;DHT22;1652;51.318;6.202;2023-04-03T01:10:00;2.00;99.90
3281;DHT22;1652;51.318;6.202;2023-04-03T01:12:30;2.00;99.90
3281;DHT22;1652;51.318;6.202;2023-04-03T01:15:00;2.00;99.90
3281;DHT22;1652;51.318;6.202;2023-04-03T01:17:45;2.00;99.90
3281;DHT22;1652;51.318;6.202;2023-04-03T01:23:22;1.90;99.90
3281;DHT22;1652;51.318;6.202;2023-04-03T01:25:52;1.80;99.90
3281;DHT22;1652;51.318;6.202;2023-04-03T01:28:28;1.90;99.90
3281;DHT22;1652;51.318;6.202;2023-04-03T01:31:15;1.90;99.90
3281;DHT22;1652;51.318;6.202;2023-04-03T01:33:45;2.00;99.90
3281;DHT22;1652;51.318;6.202;2023-04-03T01:36:19;2.00;99.90
3281;DHT22;1652;51.318;6.202;2023-04-03T01:38:48;1.90;99.90
3281;DHT22;1652;51.318;6.202;2023-04-03T01:41:15;1.80;99.90
3281;DHT22;1652;51.318;6.202;2023-04-03T01:43:42;1.70;99.90
3281;DHT22;1652;51.318;6.202;2023-04-03T01:46:10;1.40;99.90
3281;DHT22;1652;51.318;6.202;2023-04-03T01:48:37;1.40;99.90
3281;DHT22;1652;51.318;6.202;2023-04-03T01:51:04;1.30;99.90
3281;DHT22;1652;51.318;6.202;2023-04-03T01:53:30;1.10;99.90
3281;DHT22;1652;51.318;6.202;2023-04-03T01:55:57;1.10;99.90
3281;DHT22;1652;51.318;6.202;2023-04-03T01:58:24;1.20;99.90
3281;DHT22;1652;51.318;6.202;2023-04-03T02:00:52;1.30;99.90
3281;DHT22;1652;51.318;6.202;2023-04-03T02:03:19;1.20;99.90
3281;DHT22;1652;51.318;6.202;2023-04-03T02:05:46;1.10;99.90
3281;DHT22;1652;51.318;6.202;2023-04-03T02:08:13;1.10;99.90
3281;DHT22;1652;51.318;6.202;2023-04-03T02:10:40;0.90;99.90
3281;DHT22;1652;51.318;6.202;2023-04-03T02:13:07;1.00;99.90
3281;DHT22;1652;51.318;6.202;2023-04-03T02:15:37;1.00;99.90
3281;DHT22;1652;51.318;6.202;2023-04-03T02:18:04;0.90;99.90
3281;DHT22;1652;51.318;6.202;2023-04-03T02:20:33;1.00;99.90
3281;DHT22;1652;51.318;6.202;2023-04-03T02:23:01;1.10;99.90
3281;DHT22;1652;51.318;6.202;2023-04-03T02:25:30;1.10;99.90
3281;DHT22;1652;51.318;6.202;2023-04-03T02:27:57;1.30;99.90
3281;DHT22;1652;51.318;6.202;2023-04-03T02:30:24;1.50;99.90
3281;DHT22;1652;51.318;6.202;2023-04-03T02:32:51;1.50;99.90
3281;DHT22;1652;51.318;6.202;2023-04-03T02:35:18;1.60;99.90
3281;DHT22;1652;51.318;6.202;2023-04-03T02:37:45;1.70;99.90
3281;DHT22;1652;51.318;6.202;2023-04-03T02:40:12;1.80;99.90
3281;DHT22;1652;51.318;6.202;2023-04-03T02:42:39;1.90;99.90
3281;DHT22;1652;51.318;6.202;2023-04-03T02:45:06;2.00;99.90
3281;DHT22;1652;51.318;6.202;2023-04-03T02:47:33;2.10;99.90
3281;DHT22;1652;51.318;6.202;2023-04-03T02:50:00;2.10;99.90
3281;DHT22;1652;51.318;6.202;2023-04-03T02:52:27;2.20;99.90
3281;DHT22;1652;51.318;6.202;2023-04-03T02:54:54;2.20;99.90
3281;DHT22;1652;51.318;6.202;2023-04-03T02:57:21;2.30;99.90
3281;DHT22;1652;51.318;6.202;2023-04-03T02:59:48;2.40;99.90
3281;DHT22;1652;51.318;6.202;2023-04-03T03:02:15;2.40;99.90
3281;DHT22;1652;51.318;6.202;2023-04-03T03:04:42;2.40;99.90
3281;DHT22;1652;51.318;6.202;2023-04-03T03:07:09;2.40;99.90
3281;DHT22;1652;51.318;6.202;2023-04-03T03:09:36;2.40;99.90
3281;DHT22;1652;51.318;6.202;2023-04-03T03:12:03;2.40;99.90
3281;DHT22;1652;51.318;6.202;2023-04-03T03:14:31;2.40;99.90
3281;DHT22;1652;51.318;6.202;2023-04-03T03:16:58;2.40;99.90
3281;DHT22;1652;51.318;6.202;2023-04-03T03:19:25;2.40;99.90
3281;DHT22;1652;51.318;6.202;2023-04-03T03:21:52;2.40;99.90
3281;DHT22;1652;51.318;6.202;2023-04-03T03:24:19;2.50;99.90
3281;DHT22;1652;51.318;6.202;2023-04-03T03:26:46;2.40;99.90
3281;DHT22;1652;51.318;6.202;2023-04-03T03:29:13;2.40;99.90
3281;DHT22;1652;51.318;6.202;2023-04-03T03:31:40;2.40;99.90
3281;DHT22;1652;51.318;6.202;2023-04-03T03:34:07;2.40;99.90
3281;DHT22;1652;51.318;6.202;2023-04-03T03:36:33;2.50;99.90
3281;DHT22;1652;51.318;6.202;2023-04-03T03:39:01;2.50;99.90
3281;DHT22;1652;51.318;6.202;2023-04-03T03:41:28;2.50;99.90
3281;DHT22;1652;51.318;6.202;2023-04-03T03:43:55;2.40;99.90
3281;DHT22;1652;51.318;6.202;2023-04-03T03:46:21;2.40;99.90
3281;DHT22;1652;51.318;6.202;2023-04-03T03:48:48;2.40;99.90
3281;DHT22;1652;51.318;6.202;2023-04-03T03:51:15;2.40;99.90
3281;DHT22;1652;51.318;6.202;2023-04-03T03:53:43;2.30;99.90
3281;DHT22;1652;51.318;6.202;2023-04-03T03:56:10;2.30;99.90
3281;DHT22;1652;51.318;6.202;2023-04-03T03:58:37;2.30;99.90
3281;DHT22;1652;51.318;6.202;2023-04-03T04:01:05;2.30;99.90
3281;DHT22;1652;51.318;6.202;2023-04-03T04:03:32;2.30;99.90
3281;DHT22;1652;51.318;6.202;2023-04-03T04:06:00;2.20;99.90
3281;DHT22;1652;51.318;6.202;2023-04-03T04:08:27;2.20;99.90
3281;DHT22;1652;51.318;6.202;2023-04-03T04:10:54;2.20;99.90
3281;DHT22;1652;51.318;6.202;2023-04-03T04:13:21;2.20;99.90
3281;DHT22;1652;51.318;6.202;2023-04-03T04:15:48;2.10;99.90
3281;DHT22;1652;51.318;6.202;2023-04-03T04:18:14;2.10;99.90
3281;DHT22;1652;51.318;6.202;2023-04-03T04:20:41;2.10;99.90
3281;DHT22;1652;51.318;6.202;2023-04-03T04:23:08;2.10;99.90
3281;DHT22;1652;51.318;6.202;2023-04-03T04:25:35;2.10;99.90
3281;DHT22;1652;51.318;6.202;2023-04-03T04:28:02;2.10;99.90
3281;DHT22;1652;51.318;6.202;2023-04-03T04:30:29;2.10;99.90
3281;DHT22;1652;51.318;6.202;2023-04-03T04:32:56;2.10;99.90
3281;DHT22;1652;51.318;6.202;2023-04-03T04:35:23;2.00;99.90
3281;DHT22;1652;51.318;6.202;2023-04-03T04:37:50;2.00;99.90
3281;DHT22;1652;51.318;6.202;2023-04-03T04:40:17;2.00;99.90
3281;DHT22;1652;51.318;6.202;2023-04-03T04:42:44;2.00;99.90
3281;DHT22;1652;51.318;6.202;2023-04-03T04:45:11;2.00;99.90
3281;DHT22;1652;51.318;6.202;2023-04-03T04:47:38;1.90;99.90
3281;DHT22;1652;51.318;6.202;2023-04-03T04:50:06;1.90;99.90
3281;DHT22;1652;51.318;6.202;2023-04-03T04:52:32;1.90;99.90
3281;DHT22;1652;51.318;6.202;2023-04-03T04:54:59;1.90;99.90
3281;DHT22;1652;51.318;6.202;2023-04-03T04:57:26;1.90;99.90
3281;DHT22;1652;51.318;6.202;2023-04-03T04:59:54;1.80;99.90
3281;DHT22;1652;51.318;6.202;2023-04-03T05:02:21;1.80;99.90
3281;DHT22;1652;51.318;6.202;2023-04-03T05:04:48;1.80;99.90
3281;DHT22;1652;51.318;6.202;2023-04-03T05:07:16;1.80;99.90
3281;DHT22;1652;51.318;6.202;2023-04-03T05:09:43;1.80;99.90
3281;DHT22;1652;51.318;6.202;2023-04-03T05:12:10;1.80;99.90
3281;DHT22;1652;51.318;6.202;2023-04-03T05:14:37;1.80;99.90
3281;DHT22;1652;51.318;6.202;2023-04-03T05:17:04;1.80;99.90
3281;DHT22;1652;51.318;6.202;2023-04-03T05:19:31;1.80;99.90
3281;DHT22;1652;51.318;6.202;2023-04-03T05:21:58;1.80;99.90
3281;DHT22;1652;51.318;6.202;2023-04-03T05:24:25;1.80;99.90
3281;DHT22;1652;51.318;6.202;2023-04-03T05:26:52;1.80;99.90
3281;DHT22;1652;51.318;6.202;2023-04-03T05:29:20;1.70;99.90
3281;DHT22;1652;51.318;6.202;2023-04-03T05:31:49;1.80;99.90
3281;DHT22;1652;51.318;6.202;2023-04-03T05:34:17;1.80;99.90
3281;DHT22;1652;51.318;6.202;2023-04-03T05:36:44;1.90;99.90
3281;DHT22;1652;51.318;6.202;2023-04-03T05:39:11;1.90;99.90
3281;DHT22;1652;51.318;6.202;2023-04-03T05:41:38;1.90;99.90
3281;DHT22;1652;51.318;6.202;2023-04-03T05:44:05;2.00;99.90
3281;DHT22;1652;51.318;6.202;2023-04-03T05:46:32;2.10;99.90
3281;DHT22;1652;51.318;6.202;2023-04-03T05:48:59;2.10;99.90
3281;DHT22;1652;51.318;6.202;2023-04-03T05:51:34;2.30;99.90
3281;DHT22;1652;51.318;6.202;2023-04-03T05:54:16;2.80;99.90
3281;DHT22;1652;51.318;6.202;2023-04-03T05:56:44;3.50;65.90
3281;DHT22;1652;51.318;6.202;2023-04-03T05:59:11;4.20;18.30
3281;DHT22;1652;51.318;6.202;2023-04-03T06:01:38;4.60;1.00
3281;DHT22;1652;51.318;6.202;2023-04-03T06:04:05;5.00;1.00
3281;DHT22;1652;51.318;6.202;2023-04-03T06:09:15;5.60;1.00
3281;DHT22;1652;51.318;6.202;2023-04-03T06:11:42;5.60;1.00
3281;DHT22;1652;51.318;6.202;2023-04-03T06:14:10;5.70;1.00
3281;DHT22;1652;51.318;6.202;2023-04-03T06:16:37;5.80;1.00
3281;DHT22;1652;51.318;6.202;2023-04-03T06:19:09;6.10;1.00
3281;DHT22;1652;51.318;6.202;2023-04-03T06:21:36;6.10;1.00
3281;DHT22;1652;51.318;6.202;2023-04-03T06:24:04;6.50;1.00
3281;DHT22;1652;51.318;6.202;2023-04-03T06:26:33;6.60;99.90
3281;DHT22;1652;51.318;6.202;2023-04-03T06:29:00;6.60;99.90
3281;DHT22;1652;51.318;6.202;2023-04-03T06:31:29;6.40;1.00
3281;DHT22;1652;51.318;6.202;2023-04-03T06:33:56;6.30;1.00
3281;DHT22;1652;51.318;6.202;2023-04-03T06:36:23;6.60;1.00
3281;DHT22;1652;51.318;6.202;2023-04-03T06:38:50;6.80;99.90
3281;DHT22;1652;51.318;6.202;2023-04-03T06:41:17;7.20;99.90
3281;DHT22;1652;51.318;6.202;2023-04-03T06:43:44;7.60;98.50
3281;DHT22;1652;51.318;6.202;2023-04-03T06:46:20;7.80;1.00
3281;DHT22;1652;51.318;6.202;2023-04-03T06:48:48;7.60;1.00
3281;DHT22;1652;51.318;6.202;2023-04-03T06:53:51;7.70;99.90
3281;DHT22;1652;51.318;6.202;2023-04-03T06:56:19;7.80;99.90
3281;DHT22;1652;51.318;6.202;2023-04-03T06:58:46;8.00;1.00
3281;DHT22;1652;51.318;6.202;2023-04-03T07:01:15;8.50;1.00
3281;DHT22;1652;51.318;6.202;2023-04-03T07:03:43;8.20;99.90
3281;DHT22;1652;51.318;6.202;2023-04-03T07:06:12;8.10;49.40
3281;DHT22;1652;51.318;6.202;2023-04-03T07:08:40;8.10;1.00
3281;DHT22;1652;51.318;6.202;2023-04-03T07:11:07;8.30;1.00
3281;DHT22;1652;51.318;6.202;2023-04-03T07:13:34;8.60;1.00
3281;DHT22;1652;51.318;6.202;2023-04-03T07:16:01;8.70;1.00
3281;DHT22;1652;51.318;6.202;2023-04-03T07:18:30;9.00;1.00
3281;DHT22;1652;51.318;6.202;2023-04-03T07:20:57;9.10;1.00
3281;DHT22;1652;51.318;6.202;2023-04-03T07:23:24;9.30;1.00
3281;DHT22;1652;51.318;6.202;2023-04-03T07:25:52;8.90;1.00
3281;DHT22;1652;51.318;6.202;2023-04-03T07:28:20;8.70;99.90
3281;DHT22;1652;51.318;6.202;2023-04-03T07:30:51;8.60;1.00
3281;DHT22;1652;51.318;6.202;2023-04-03T07:33:19;8.60;99.90
3281;DHT22;1652;51.318;6.202;2023-04-03T07:35:47;8.80;1.00
3281;DHT22;1652;51.318;6.202;2023-04-03T07:38:14;9.30;1.00
3281;DHT22;1652;51.318;6.202;2023-04-03T07:40:49;9.30;18.20
3281;DHT22;1652;51.318;6.202;2023-04-03T07:43:18;9.00;1.00
3281;DHT22;1652;51.318;6.202;2023-04-03T07:45:45;8.80;99.90
3281;DHT22;1652;51.318;6.202;2023-04-03T07:48:13;8.70;85.00
3281;DHT22;1652;51.318;6.202;2023-04-03T07:50:40;8.50;1.00
3281;DHT22;1652;51.318;6.202;2023-04-03T07:53:08;8.50;99.90
3281;DHT22;1652;51.318;6.202;2023-04-03T07:55:35;8.40;1.00
3281;DHT22;1652;51.318;6.202;2023-04-03T07:58:07;8.70;1.00
3281;DHT22;1652;51.318;6.202;2023-04-03T08:00:34;8.80;99.90
3281;DHT22;1652;51.318;6.202;2023-04-03T08:03:01;8.80;1.00
3281;DHT22;1652;51.318;6.202;2023-04-03T08:05:28;8.90;99.90
3281;DHT22;1652;51.318;6.202;2023-04-03T08:07:55;8.80;99.90
3281;DHT22;1652;51.318;6.202;2023-04-03T08:10:22;8.80;99.90
3281;DHT22;1652;51.318;6.202;2023-04-03T08:12:49;8.60;99.90
3281;DHT22;1652;51.318;6.202;2023-04-03T08:15:16;8.30;99.90
3281;DHT22;1652;51.318;6.202;2023-04-03T08:17:43;8.20;99.90
3281;DHT22;1652;51.318;6.202;2023-04-03T08:20:10;8.40;1.00
3281;DHT22;1652;51.318;6.202;2023-04-03T08:22:37;8.80;28.60
3281;DHT22;1652;51.318;6.202;2023-04-03T08:25:04;9.10;1.00
3281;DHT22;1652;51.318;6.202;2023-04-03T08:27:31;8.70;99.90
3281;DHT22;1652;51.318;6.202;2023-04-03T08:30:01;8.60;1.00
3281;DHT22;1652;51.318;6.202;2023-04-03T08:32:28;8.70;99.90
3281;DHT22;1652;51.318;6.202;2023-04-03T08:34:56;9.00;1.00
3281;DHT22;1652;51.318;6.202;2023-04-03T08:37:22;9.10;99.90
3281;DHT22;1652;51.318;6.202;2023-04-03T08:39:49;8.90;1.00
3281;DHT22;1652;51.318;6.202;2023-04-03T08:42:36;8.70;1.00
3281;DHT22;1652;51.318;6.202;2023-04-03T08:45:15;8.40;1.00
3281;DHT22;1652;51.318;6.202;2023-04-03T08:48:18;8.40;99.90
3281;DHT22;1652;51.318;6.202;2023-04-03T08:50:40;8.50;99.90
3281;DHT22;1652;51.318;6.202;2023-04-03T08:53:18;8.80;99.90
3281;DHT22;1652;51.318;6.202;2023-04-03T08:55:47;8.40;75.00
3281;DHT22;1652;51.318;6.202;2023-04-03T09:00:50;8.20;99.90
3281;DHT22;1652;51.318;6.202;2023-04-03T09:03:20;8.60;1.00
3281;DHT22;1652;51.318;6.202;2023-04-03T09:06:16;8.60;66.80
3281;DHT22;1652;51.318;6.202;2023-04-03T09:11:41;8.00;1.00
3281;DHT22;1652;51.318;6.202;2023-04-03T09:14:32;7.60;1.00
3281;DHT22;1652;51.318;6.202;2023-04-03T09:19:54;7.00;1.00
3281;DHT22;1652;51.318;6.202;2023-04-03T09:22:28;6.90;99.90
3281;DHT22;1652;51.318;6.202;2023-04-03T09:27:45;6.60;99.90
3281;DHT22;1652;51.318;6.202;2023-04-03T09:30:20;6.60;99.90
3281;DHT22;1652;51.318;6.202;2023-04-03T09:32:50;6.80;99.90
3281;DHT22;1652;51.318;6.202;2023-04-03T09:35:35;6.80;1.00
3281;DHT22;1652;51.318;6.202;2023-04-03T09:38:15;6.70;1.00
3281;DHT22;1652;51.318;6.202;2023-04-03T09:40:45;6.60;1.00
3281;DHT22;1652;51.318;6.202;2023-04-03T09:45:51;6.60;1.00
3281;DHT22;1652;51.318;6.202;2023-04-03T09:48:22;6.70;1.00
3281;DHT22;1652;51.318;6.202;2023-04-03T09:53:43;6.80;1.00
3281;DHT22;1652;51.318;6.202;2023-04-03T10:04:11;6.70;1.00
3281;DHT22;1652;51.318;6.202;2023-04-03T10:06:49;6.70;1.00
3281;DHT22;1652;51.318;6.202;2023-04-03T10:09:25;6.70;1.00
3281;DHT22;1652;51.318;6.202;2023-04-03T10:12:08;6.70;1.00
3281;DHT22;1652;51.318;6.202;2023-04-03T10:14:39;6.90;1.00
3281;DHT22;1652;51.318;6.202;2023-04-03T10:17:16;6.80;1.00
3281;DHT22;1652;51.318;6.202;2023-04-03T10:23:10;6.80;99.90
3281;DHT22;1652;51.318;6.202;2023-04-03T10:25:47;7.00;1.00
3281;DHT22;1652;51.318;6.202;2023-04-03T10:28:25;7.10;1.00
3281;DHT22;1652;51.318;6.202;2023-04-03T10:30:57;7.10;99.90
3281;DHT22;1652;51.318;6.202;2023-04-03T10:36:25;6.90;99.90
3281;DHT22;1652;51.318;6.202;2023-04-03T10:42:08;7.10;1.00
3281;DHT22;1652;51.318;6.202;2023-04-03T10:47:19;7.20;99.90
3281;DHT22;1652;51.318;6.202;2023-04-03T10:52:31;7.20;99.90
3281;DHT22;1652;51.318;6.202;2023-04-03T10:55:43;7.10;99.90
3281;DHT22;1652;51.318;6.202;2023-04-03T10:58:21;7.10;99.90
3281;DHT22;1652;51.318;6.202;2023-04-03T11:00:53;7.10;99.90
3281;DHT22;1652;51.318;6.202;2023-04-03T11:03:36;7.20;99.90
3281;DHT22;1652;51.318;6.202;2023-04-03T11:06:10;7.20;99.90
3281;DHT22;1652;51.318;6.202;2023-04-03T11:08:59;7.40;99.90
3281;DHT22;1652;51.318;6.202;2023-04-03T11:11:39;7.40;99.90
3281;DHT22;1652;51.318;6.202;2023-04-03T11:16:50;7.30;99.90
3281;DHT22;1652;51.318;6.202;2023-04-03T11:19:34;7.40;99.90
3281;DHT22;1652;51.318;6.202;2023-04-03T11:24:38;7.50;99.90
3281;DHT22;1652;51.318;6.202;2023-04-03T11:27:15;7.50;99.90
3281;DHT22;1652;51.318;6.202;2023-04-03T11:29:44;7.60;99.90
3281;DHT22;1652;51.318;6.202;2023-04-03T11:35:05;7.60;1.00
3281;DHT22;1652;51.318;6.202;2023-04-03T11:37:38;7.70;99.90
3281;DHT22;1652;51.318;6.202;2023-04-03T11:40:29;7.60;99.90
3281;DHT22;1652;51.318;6.202;2023-04-03T11:50:49;7.70;99.90
3281;DHT22;1652;51.318;6.202;2023-04-03T11:55:51;7.70;99.90
3281;DHT22;1652;51.318;6.202;2023-04-03T12:05:57;7.70;99.90
3281;DHT22;1652;51.318;6.202;2023-04-03T12:08:47;7.80;1.00
3281;DHT22;1652;51.318;6.202;2023-04-03T12:16:33;7.90;99.90
3281;DHT22;1652;51.318;6.202;2023-04-03T12:19:39;7.90;1.00
3281;DHT22;1652;51.318;6.202;2023-04-03T12:22:15;8.00;1.00
3281;DHT22;1652;51.318;6.202;2023-04-03T12:24:44;8.10;1.00
3281;DHT22;1652;51.318;6.202;2023-04-03T12:27:29;8.20;99.90
3281;DHT22;1652;51.318;6.202;2023-04-03T12:30:03;8.20;99.90
3281;DHT22;1652;51.318;6.202;2023-04-03T12:40:58;8.10;99.90
3281;DHT22;1652;51.318;6.202;2023-04-03T12:48:50;8.20;99.90
3281;DHT22;1652;51.318;6.202;2023-04-03T12:51:44;8.00;99.90
3281;DHT22;1652;51.318;6.202;2023-04-03T12:54:32;8.10;1.00
3281;DHT22;1652;51.318;6.202;2023-04-03T12:57:20;8.20;1.00
3281;DHT22;1652;51.318;6.202;2023-04-03T12:59:48;8.30;1.00
3281;DHT22;1652;51.318;6.202;2023-04-03T13:02:28;8.40;1.00
3281;DHT22;1652;51.318;6.202;2023-04-03T13:04:58;8.40;1.00
3281;DHT22;1652;51.318;6.202;2023-04-03T13:12:49;8.50;1.00
3281;DHT22;1652;51.318;6.202;2023-04-03T13:17:49;8.40;1.00
3281;DHT22;1652;51.318;6.202;2023-04-03T13:20:25;8.40;1.00
3281;DHT22;1652;51.318;6.202;2023-04-03T13:23:01;8.40;1.00
3281;DHT22;1652;51.318;6.202;2023-04-03T13:25:31;8.50;1.00
3281;DHT22;1652;51.318;6.202;2023-04-03T13:28:01;8.40;1.00
3281;DHT22;1652;51.318;6.202;2023-04-03T13:30:40;8.60;1.00
3281;DHT22;1652;51.318;6.202;2023-04-03T13:33:24;8.60;1.00
3281;DHT22;1652;51.318;6.202;2023-04-03T13:35:58;8.50;1.00
3281;DHT22;1652;51.318;6.202;2023-04-03T13:38:29;8.60;1.00
3281;DHT22;1652;51.318;6.202;2023-04-03T13:41:05;8.60;1.00
3281;DHT22;1652;51.318;6.202;2023-04-03T13:43:48;8.60;1.00
3281;DHT22;1652;51.318;6.202;2023-04-03T13:48:51;8.50;1.00
3281;DHT22;1652;51.318;6.202;2023-04-03T13:51:22;8.60;1.00
3281;DHT22;1652;51.318;6.202;2023-04-03T13:53:59;8.70;1.00
3281;DHT22;1652;51.318;6.202;2023-04-03T13:56:33;8.70;99.90
3281;DHT22;1652;51.318;6.202;2023-04-03T14:02:06;8.50;99.90
3281;DHT22;1652;51.318;6.202;2023-04-03T14:04:35;8.50;1.00
3281;DHT22;1652;51.318;6.202;2023-04-03T14:07:11;8.50;1.00
3281;DHT22;1652;51.318;6.202;2023-04-03T14:09:39;8.60;1.00
3281;DHT22;1652;51.318;6.202;2023-04-03T14:12:24;8.50;1.00
3281;DHT22;1652;51.318;6.202;2023-04-03T14:14:59;8.60;1.00
3281;DHT22;1652;51.318;6.202;2023-04-03T14:17:27;8.70;1.00
3281;DHT22;1652;51.318;6.202;2023-04-03T14:19:55;8.50;99.90
3281;DHT22;1652;51.318;6.202;2023-04-03T14:22:32;8.50;1.00
3281;DHT22;1652;51.318;6.202;2023-04-03T14:25:01;8.50;1.00
3281;DHT22;1652;51.318;6.202;2023-04-03T14:27:37;8.50;1.00
3281;DHT22;1652;51.318;6.202;2023-04-03T14:30:09;8.50;1.00
3281;DHT22;1652;51.318;6.202;2023-04-03T14:32:39;8.70;1.00
3281;DHT22;1652;51.318;6.202;2023-04-03T14:35:06;8.70;1.00
3281;DHT22;1652;51.318;6.202;2023-04-03T14:37:33;8.60;1.00
3281;DHT22;1652;51.318;6.202;2023-04-03T14:40:02;8.60;1.00
3281;DHT22;1652;51.318;6.202;2023-04-03T14:42:33;8.60;1.00
3281;DHT22;1652;51.318;6.202;2023-04-03T14:45:02;8.60;99.90
3281;DHT22;1652;51.318;6.202;2023-04-03T14:47:30;8.50;99.90
3281;DHT22;1652;51.318;6.202;2023-04-03T14:50:00;8.60;1.00
3281;DHT22;1652;51.318;6.202;2023-04-03T14:52:31;8.60;1.00
3281;DHT22;1652;51.318;6.202;2023-04-03T14:54:59;8.60;1.00
3281;DHT22;1652;51.318;6.202;2023-04-03T14:57:28;8.60;99.90
3281;DHT22;1652;51.318;6.202;2023-04-03T14:59:56;8.50;1.00
3281;DHT22;1652;51.318;6.202;2023-04-03T15:02:33;8.60;1.00
3281;DHT22;1652;51.318;6.202;2023-04-03T15:05:02;8.60;1.00
3281;DHT22;1652;51.318;6.202;2023-04-03T15:10:23;8.70;1.00
3281;DHT22;1652;51.318;6.202;2023-04-03T15:12:50;8.60;1.00
3281;DHT22;1652;51.318;6.202;2023-04-03T15:15:20;8.50;1.00
3281;DHT22;1652;51.318;6.202;2023-04-03T15:17:50;8.50;1.00
3281;DHT22;1652;51.318;6.202;2023-04-03T15:20:21;8.50;1.00
3281;DHT22;1652;51.318;6.202;2023-04-03T15:22:48;8.50;99.90
3281;DHT22;1652;51.318;6.202;2023-04-03T15:25:15;8.40;99.90
3281;DHT22;1652;51.318;6.202;2023-04-03T15:27:42;8.50;1.00
3281;DHT22;1652;51.318;6.202;2023-04-03T15:30:15;8.40;1.00
3281;DHT22;1652;51.318;6.202;2023-04-03T15:32:42;8.40;1.00
3281;DHT22;1652;51.318;6.202;2023-04-03T15:35:09;8.40;1.00
3281;DHT22;1652;51.318;6.202;2023-04-03T15:37:36;8.40;1.00
3281;DHT22;1652;51.318;6.202;2023-04-03T15:40:05;8.50;1.00
3281;DHT22;1652;51.318;6.202;2023-04-03T15:42:32;8.50;1.00
3281;DHT22;1652;51.318;6.202;2023-04-03T15:44:59;8.60;1.00
3281;DHT22;1652;51.318;6.202;2023-04-03T15:47:26;8.60;1.00
3281;DHT22;1652;51.318;6.202;2023-04-03T15:49:54;8.50;1.00
3281;DHT22;1652;51.318;6.202;2023-04-03T15:52:21;8.50;1.00
3281;DHT22;1652;51.318;6.202;2023-04-03T15:54:49;8.40;99.90
3281;DHT22;1652;51.318;6.202;2023-04-03T15:57:16;8.40;1.00
3281;DHT22;1652;51.318;6.202;2023-04-03T15:59:43;8.50;1.00
3281;DHT22;1652;51.318;6.202;2023-04-03T16:02:11;8.40;1.00
3281;DHT22;1652;51.318;6.202;2023-04-03T16:04:40;8.50;1.00
3281;DHT22;1652;51.318;6.202;2023-04-03T16:07:07;8.50;1.00
3281;DHT22;1652;51.318;6.202;2023-04-03T16:09:35;8.40;1.00
3281;DHT22;1652;51.318;6.202;2023-04-03T16:12:02;8.40;1.00
3281;DHT22;1652;51.318;6.202;2023-04-03T16:14:29;8.30;1.00
3281;DHT22;1652;51.318;6.202;2023-04-03T16:16:58;8.30;1.00
3281;DHT22;1652;51.318;6.202;2023-04-03T16:19:25;8.30;1.00
3281;DHT22;1652;51.318;6.202;2023-04-03T16:21:53;8.30;1.00
3281;DHT22;1652;51.318;6.202;2023-04-03T16:24:21;8.20;1.00
3281;DHT22;1652;51.318;6.202;2023-04-03T16:26:48;8.20;1.00
3281;DHT22;1652;51.318;6.202;2023-04-03T16:29:15;8.20;1.00
3281;DHT22;1652;51.318;6.202;2023-04-03T16:31:42;8.20;1.00
3281;DHT22;1652;51.318;6.202;2023-04-03T16:34:09;8.10;1.00
3281;DHT22;1652;51.318;6.202;2023-04-03T16:36:36;8.10;1.00
3281;DHT22;1652;51.318;6.202;2023-04-03T16:39:04;8.10;1.00
3281;DHT22;1652;51.318;6.202;2023-04-03T16:41:31;8.10;1.00
3281;DHT22;1652;51.318;6.202;2023-04-03T16:43:58;8.10;1.00
3281;DHT22;1652;51.318;6.202;2023-04-03T16:46:25;8.10;1.00
3281;DHT22;1652;51.318;6.202;2023-04-03T16:48:52;8.10;1.00
3281;DHT22;1652;51.318;6.202;2023-04-03T16:51:19;8.10;1.00
3281;DHT22;1652;51.318;6.202;2023-04-03T16:53:47;8.10;1.00
3281;DHT22;1652;51.318;6.202;2023-04-03T16:56:14;8.00;1.00
3281;DHT22;1652;51.318;6.202;2023-04-03T16:58:41;7.90;1.00
3281;DHT22;1652;51.318;6.202;2023-04-03T17:01:15;7.90;1.00
3281;DHT22;1652;51.318;6.202;2023-04-03T17:03:42;7.90;1.00
3281;DHT22;1652;51.318;6.202;2023-04-03T17:06:11;7.90;1.00
3281;DHT22;1652;51.318;6.202;2023-04-03T17:08:44;7.80;99.90
3281;DHT22;1652;51.318;6.202;2023-04-03T17:11:11;7.80;1.00
3281;DHT22;1652;51.318;6.202;2023-04-03T17:13:38;7.70;1.00
3281;DHT22;1652;51.318;6.202;2023-04-03T17:16:08;7.70;99.90
3281;DHT22;1652;51.318;6.202;2023-04-03T17:18:36;7.60;1.00
3281;DHT22;1652;51.318;6.202;2023-04-03T17:21:04;7.60;99.90
3281;DHT22;1652;51.318;6.202;2023-04-03T17:23:32;7.60;99.90
3281;DHT22;1652;51.318;6.202;2023-04-03T17:26:02;7.50;99.90
3281;DHT22;1652;51.318;6.202;2023-04-03T17:28:29;7.50;99.90
3281;DHT22;1652;51.318;6.202;2023-04-03T17:30:59;7.40;99.90
3281;DHT22;1652;51.318;6.202;2023-04-03T17:33:26;7.40;99.90
3281;DHT22;1652;51.318;6.202;2023-04-03T17:35:58;7.30;99.90
3281;DHT22;1652;51.318;6.202;2023-04-03T17:38:25;7.30;99.90
3281;DHT22;1652;51.318;6.202;2023-04-03T17:40:55;7.30;1.00
3281;DHT22;1652;51.318;6.202;2023-04-03T17:43:21;7.20;1.00
3281;DHT22;1652;51.318;6.202;2023-04-03T17:45:48;7.20;1.00
3281;DHT22;1652;51.318;6.202;2023-04-03T17:48:15;7.20;1.00
3281;DHT22;1652;51.318;6.202;2023-04-03T17:50:42;7.10;1.00
3281;DHT22;1652;51.318;6.202;2023-04-03T17:53:09;7.10;1.00
3281;DHT22;1652;51.318;6.202;2023-04-03T17:55:39;7.00;1.00
3281;DHT22;1652;51.318;6.202;2023-04-03T17:58:06;7.00;1.00
3281;DHT22;1652;51.318;6.202;2023-04-03T18:00:33;7.00;19.40
3281;DHT22;1652;51.318;6.202;2023-04-03T18:03:00;6.90;80.40
3281;DHT22;1652;51.318;6.202;2023-04-03T18:05:28;6.90;1.00
3281;DHT22;1652;51.318;6.202;2023-04-03T18:07:56;6.80;1.00
3281;DHT22;1652;51.318;6.202;2023-04-03T18:10:23;6.80;99.90
3281;DHT22;1652;51.318;6.202;2023-04-03T18:12:52;6.70;99.90
3281;DHT22;1652;51.318;6.202;2023-04-03T18:15:19;6.70;99.90
3281;DHT22;1652;51.318;6.202;2023-04-03T18:17:46;6.60;99.90
3281;DHT22;1652;51.318;6.202;2023-04-03T18:20:15;6.60;99.90
3281;DHT22;1652;51.318;6.202;2023-04-03T18:22:43;6.50;1.00
3281;DHT22;1652;51.318;6.202;2023-04-03T18:25:10;6.50;1.00
3281;DHT22;1652;51.318;6.202;2023-04-03T18:27:40;6.40;99.90
3281;DHT22;1652;51.318;6.202;2023-04-03T18:30:12;6.30;1.00
3281;DHT22;1652;51.318;6.202;2023-04-03T18:32:40;6.30;1.00